sensor_id;sensor_type;location;lat;lon;timestamp;temperature;humidity
78550;DHT22;68091;52.130;5.570;2023-04-06T00:01:39;2.20;93.60
78550;DHT22;68091;52.130;5.570;2023-04-06T00:04:05;2.20;93.70
78550;DHT22;68091;52.130;5.570;2023-04-06T00:06:32;2.20;93.60
78550;DHT22;68091;52.130;5.570;2023-04-06T00:09:03;2.10;93.60
78550;DHT22;68091;52.130;5.570;2023-04-06T00:11:29;2.10;93.70
78550;DHT22;68091;52.130;5.570;2023-04-06T00:13:55;2.00;93.70
78550;DHT22;68091;52.130;5.570;2023-04-06T00:16:21;1.90;93.70
78550;DHT22;68091;52.130;5.570;2023-04-06T00:18:47;1.90;93.90
78550;DHT22;68091;52.130;5.570;2023-04-06T00:21:13;1.80;94.00
78550;DHT22;68091;52.130;5.570;2023-04-06T00:23:41;1.80;94.10
78550;DHT22;68091;52.130;5.570;2023-04-06T00:26:07;1.70;94.20
78550;DHT22;68091;52.130;5.570;2023-04-06T00:28:33;1.80;94.30
78550;DHT22;68091;52.130;5.570;2023-04-06T00:30:59;1.70;94.40
78550;DHT22;68091;52.130;5.570;2023-04-06T00:33:25;1.80;94.60
78550;DHT22;68091;52.130;5.570;2023-04-06T00:35:51;1.70;94.60
78550;DHT22;68091;52.130;5.570;2023-04-06T00:38:17;1.70;94.70
78550;DHT22;68091;52.130;5.570;2023-04-06T00:40:43;1.60;94.60
78550;DHT22;68091;52.130;5.570;2023-04-06T00:43:12;1.70;94.50
78550;DHT22;68091;52.130;5.570;2023-04-06T00:45:39;1.60;94.50
78550;DHT22;68091;52.130;5.570;2023-04-06T00:48:05;1.60;94.60
78550;DHT22;68091;52.130;5.570;2023-04-06T00:50:32;1.60;94.60
78550;DHT22;68091;52.130;5.570;2023-04-06T00:52:58;1.60;94.60
78550;DHT22;68091;52.130;5.570;2023-04-06T00:55:26;1.60;94.70
78550;DHT22;68091;52.130;5.570;2023-04-06T00:57:52;1.60;94.80
78550;DHT22;68091;52.130;5.570;2023-04-06T01:00:18;1.50;94.80
78550;DHT22;68091;52.130;5.570;2023-04-06T01:02:44;1.40;94.90
78550;DHT22;68091;52.130;5.570;2023-04-06T01:05:11;1.40;94.90
78550;DHT22;68091;52.130;5.570;2023-04-06T01:07:37;1.30;95.10
78550;DHT22;68091;52.130;5.570;2023-04-06T01:10:04;1.40;95.30
78550;DHT22;68091;52.130;5.570;2023-04-06T01:12:30;1.40;95.30
78550;DHT22;68091;52.130;5.570;2023-04-06T01:14:56;1.40;95.30
78550;DHT22;68091;52.130;5.570;2023-04-06T01:17:22;1.40;95.30
78550;DHT22;68091;52.130;5.570;2023-04-06T01:19:48;1.40;95.30
78550;DHT22;68091;52.130;5.570;2023-04-06T01:22:19;1.40;95.30
78550;DHT22;68091;52.130;5.570;2023-04-06T01:24:46;1.40;95.30
78550;DHT22;68091;52.130;5.570;2023-04-06T01:27:12;1.30;95.20
78550;DHT22;68091;52.130;5.570;2023-04-06T01:29:38;1.40;95.20
78550;DHT22;68091;52.130;5.570;2023-04-06T01:32:07;1.40;95.20
78550;DHT22;68091;52.130;5.570;2023-04-06T01:34:32;1.40;95.20
78550;DHT22;68091;52.130;5.570;2023-04-06T01:36:59;1.40;95.10
78550;DHT22;68091;52.130;5.570;2023-04-06T01:39:25;1.40;95.00
78550;DHT22;68091;52.130;5.570;2023-04-06T01:41:51;1.50;95.10
78550;DHT22;68091;52.130;5.570;2023-04-06T01:44:18;1.50;95.00
78550;DHT22;68091;52.130;5.570;2023-04-06T01:46:45;1.50;94.90
78550;DHT22;68091;52.130;5.570;2023-04-06T01:49:12;1.50;94.90
78550;DHT22;68091;52.130;5.570;2023-04-06T01:51:37;1.60;95.00
78550;DHT22;68091;52.130;5.570;2023-04-06T01:54:24;1.60;95.00
78550;DHT22;68091;52.130;5.570;2023-04-06T01:56:53;1.60;95.10
78550;DHT22;68091;52.130;5.570;2023-04-06T01:59:19;1.60;95.10
78550;DHT22;68091;52.130;5.570;2023-04-06T02:01:47;1.70;95.10
78550;DHT22;68091;52.130;5.570;2023-04-06T02:04:13;1.70;95.00
78550;DHT22;68091;52.130;5.570;2023-04-06T02:06:40;1.70;95.00
78550;DHT22;68091;52.130;5.570;2023-04-06T02:09:06;1.80;95.10
78550;DHT22;68091;52.130;5.570;2023-04-06T02:11:32;1.80;95.00
78550;DHT22;68091;52.130;5.570;2023-04-06T02:13:58;1.90;95.00
78550;DHT22;68091;52.130;5.570;2023-04-06T02:16:25;1.90;95.00
78550;DHT22;68091;52.130;5.570;2023-04-06T02:19:02;2.00;95.00
78550;DHT22;68091;52.130;5.570;2023-04-06T02:21:28;2.00;94.80
78550;DHT22;68091;52.130;5.570;2023-04-06T02:23:54;2.10;94.70
78550;DHT22;68091;52.130;5.570;2023-04-06T02:26:20;2.10;94.60
78550;DHT22;68091;52.130;5.570;2023-04-06T02:28:46;2.20;94.50
78550;DHT22;68091;52.130;5.570;2023-04-06T02:31:11;2.20;94.40
78550;DHT22;68091;52.130;5.570;2023-04-06T02:33:37;2.30;94.40
78550;DHT22;68091;52.130;5.570;2023-04-06T02:36:04;2.30;94.30
78550;DHT22;68091;52.130;5.570;2023-04-06T02:38:29;2.40;94.20
78550;DHT22;68091;52.130;5.570;2023-04-06T02:40:55;2.40;94.00
78550;DHT22;68091;52.130;5.570;2023-04-06T02:43:21;2.40;94.00
78550;DHT22;68091;52.130;5.570;2023-04-06T02:45:47;2.40;94.10
78550;DHT22;68091;52.130;5.570;2023-04-06T02:48:13;2.50;94.00
78550;DHT22;68091;52.130;5.570;2023-04-06T02:50:40;2.50;93.80
78550;DHT22;68091;52.130;5.570;2023-04-06T02:53:05;2.60;93.80
78550;DHT22;68091;52.130;5.570;2023-04-06T02:55:33;2.60;93.50
78550;DHT22;68091;52.130;5.570;2023-04-06T02:57:59;2.60;93.30
78550;DHT22;68091;52.130;5.570;2023-04-06T03:00:25;2.70;93.00
78550;DHT22;68091;52.130;5.570;2023-04-06T03:02:52;2.80;92.80
78550;DHT22;68091;52.130;5.570;2023-04-06T03:05:17;2.90;92.70
78550;DHT22;68091;52.130;5.570;2023-04-06T03:07:43;2.90;92.50
78550;DHT22;68091;52.130;5.570;2023-04-06T03:10:09;3.00;92.20
78550;DHT22;68091;52.130;5.570;2023-04-06T03:12:35;3.10;92.10
78550;DHT22;68091;52.130;5.570;2023-04-06T03:15:01;3.20;92.00
78550;DHT22;68091;52.130;5.570;2023-04-06T03:17:27;3.20;91.80
78550;DHT22;68091;52.130;5.570;2023-04-06T03:19:53;3.20;91.60
78550;DHT22;68091;52.130;5.570;2023-04-06T03:22:19;3.30;91.50
78550;DHT22;68091;52.130;5.570;2023-04-06T03:24:45;3.40;91.40
78550;DHT22;68091;52.130;5.570;2023-04-06T03:27:11;3.50;91.00
78550;DHT22;68091;52.130;5.570;2023-04-06T03:29:37;3.60;90.70
78550;DHT22;68091;52.130;5.570;2023-04-06T03:32:04;3.70;90.40
78550;DHT22;68091;52.130;5.570;2023-04-06T03:34:30;3.80;90.20
78550;DHT22;68091;52.130;5.570;2023-04-06T03:36:56;3.80;89.80
78550;DHT22;68091;52.130;5.570;2023-04-06T03:39:22;3.90;90.00
78550;DHT22;68091;52.130;5.570;2023-04-06T03:41:47;3.90;90.00
78550;DHT22;68091;52.130;5.570;2023-04-06T03:44:13;4.00;89.50
78550;DHT22;68091;52.130;5.570;2023-04-06T03:46:39;3.90;89.70
78550;DHT22;68091;52.130;5.570;2023-04-06T03:49:05;3.90;89.90
78550;DHT22;68091;52.130;5.570;2023-04-06T03:51:31;3.90;90.10
78550;DHT22;68091;52.130;5.570;2023-04-06T03:53:56;4.00;90.00
78550;DHT22;68091;52.130;5.570;2023-04-06T03:56:22;3.90;90.00
78550;DHT22;68091;52.130;5.570;2023-04-06T03:58:51;3.90;90.20
78550;DHT22;68091;52.130;5.570;2023-04-06T04:01:24;3.90;90.40
78550;DHT22;68091;52.130;5.570;2023-04-06T04:03:50;3.90;90.60
78550;DHT22;68091;52.130;5.570;2023-04-06T04:06:17;3.80;90.50
78550;DHT22;68091;52.130;5.570;2023-04-06T04:08:43;3.90;90.50
78550;DHT22;68091;52.130;5.570;2023-04-06T04:11:09;3.90;90.60
78550;DHT22;68091;52.130;5.570;2023-04-06T04:13:35;3.90;90.60
78550;DHT22;68091;52.130;5.570;2023-04-06T04:16:00;3.90;90.60
78550;DHT22;68091;52.130;5.570;2023-04-06T04:18:26;3.90;90.10
78550;DHT22;68091;52.130;5.570;2023-04-06T04:20:52;3.90;90.10
78550;DHT22;68091;52.130;5.570;2023-04-06T04:23:18;3.90;90.10
78550;DHT22;68091;52.130;5.570;2023-04-06T04:25:44;3.90;90.00
78550;DHT22;68091;52.130;5.570;2023-04-06T04:28:10;3.90;90.10
78550;DHT22;68091;52.130;5.570;2023-04-06T04:30:36;3.90;90.30
78550;DHT22;68091;52.130;5.570;2023-04-06T04:33:02;3.90;90.30
78550;DHT22;68091;52.130;5.570;2023-04-06T04:35:28;3.80;90.40
78550;DHT22;68091;52.130;5.570;2023-04-06T04:37:54;3.80;90.30
78550;DHT22;68091;52.130;5.570;2023-04-06T04:40:19;3.80;90.30
78550;DHT22;68091;52.130;5.570;2023-04-06T04:42:45;3.90;90.30
78550;DHT22;68091;52.130;5.570;2023-04-06T04:45:11;3.80;90.40
78550;DHT22;68091;52.130;5.570;2023-04-06T04:47:38;3.80;90.50
78550;DHT22;68091;52.130;5.570;2023-04-06T04:50:04;3.70;90.70
78550;DHT22;68091;52.130;5.570;2023-04-06T04:52:30;3.70;90.90
78550;DHT22;68091;52.130;5.570;2023-04-06T04:54:56;3.70;91.00
78550;DHT22;68091;52.130;5.570;2023-04-06T04:57:22;3.60;91.60
78550;DHT22;68091;52.130;5.570;2023-04-06T04:59:48;3.60;91.30
78550;DHT22;68091;52.130;5.570;2023-04-06T05:02:17;3.60;91.20
78550;DHT22;68091;52.130;5.570;2023-04-06T05:04:43;3.60;91.40
78550;DHT22;68091;52.130;5.570;2023-04-06T05:07:09;3.60;91.30
78550;DHT22;68091;52.130;5.570;2023-04-06T05:09:38;3.60;91.30
78550;DHT22;68091;52.130;5.570;2023-04-06T05:12:04;3.60;91.40
78550;DHT22;68091;52.130;5.570;2023-04-06T05:14:29;3.60;91.30
78550;DHT22;68091;52.130;5.570;2023-04-06T05:16:55;3.60;91.20
78550;DHT22;68091;52.130;5.570;2023-04-06T05:19:21;3.60;91.20
78550;DHT22;68091;52.130;5.570;2023-04-06T05:21:47;3.70;91.10
78550;DHT22;68091;52.130;5.570;2023-04-06T05:24:13;3.70;91.10
78550;DHT22;68091;52.130;5.570;2023-04-06T05:26:39;3.80;91.10
78550;DHT22;68091;52.130;5.570;2023-04-06T05:29:05;3.90;90.80
78550;DHT22;68091;52.130;5.570;2023-04-06T05:31:31;3.90;90.70
78550;DHT22;68091;52.130;5.570;2023-04-06T05:33:57;4.00;90.80
78550;DHT22;68091;52.130;5.570;2023-04-06T05:36:23;4.10;90.60
78550;DHT22;68091;52.130;5.570;2023-04-06T05:38:49;4.20;90.50
78550;DHT22;68091;52.130;5.570;2023-04-06T05:41:18;4.30;90.10
78550;DHT22;68091;52.130;5.570;2023-04-06T05:43:44;4.30;90.10
78550;DHT22;68091;52.130;5.570;2023-04-06T05:46:10;4.40;90.20
78550;DHT22;68091;52.130;5.570;2023-04-06T05:48:36;4.50;90.00
78550;DHT22;68091;52.130;5.570;2023-04-06T05:51:01;4.50;90.00
78550;DHT22;68091;52.130;5.570;2023-04-06T05:53:31;4.60;89.90
78550;DHT22;68091;52.130;5.570;2023-04-06T05:56:00;4.60;89.80
78550;DHT22;68091;52.130;5.570;2023-04-06T05:58:26;4.70;89.00
78550;DHT22;68091;52.130;5.570;2023-04-06T06:00:59;4.80;88.60
78550;DHT22;68091;52.130;5.570;2023-04-06T06:03:26;4.90;88.60
78550;DHT22;68091;52.130;5.570;2023-04-06T06:05:52;4.90;88.80
78550;DHT22;68091;52.130;5.570;2023-04-06T06:08:17;5.00;88.80
78550;DHT22;68091;52.130;5.570;2023-04-06T06:10:43;5.00;88.70
78550;DHT22;68091;52.130;5.570;2023-04-06T06:13:09;5.10;88.60
78550;DHT22;68091;52.130;5.570;2023-04-06T06:15:35;5.10;88.60
78550;DHT22;68091;52.130;5.570;2023-04-06T06:18:01;5.20;88.50
78550;DHT22;68091;52.130;5.570;2023-04-06T06:20:30;5.30;88.90
78550;DHT22;68091;52.130;5.570;2023-04-06T06:22:56;5.40;88.00
78550;DHT22;68091;52.130;5.570;2023-04-06T06:25:22;5.50;88.30
78550;DHT22;68091;52.130;5.570;2023-04-06T06:27:48;5.60;87.60
78550;DHT22;68091;52.130;5.570;2023-04-06T06:30:14;5.70;87.30
78550;DHT22;68091;52.130;5.570;2023-04-06T06:32:40;5.80;86.90
78550;DHT22;68091;52.130;5.570;2023-04-06T06:35:06;5.90;86.10
78550;DHT22;68091;52.130;5.570;2023-04-06T06:37:32;6.00;86.70
78550;DHT22;68091;52.130;5.570;2023-04-06T06:39:58;6.00;85.90
78550;DHT22;68091;52.130;5.570;2023-04-06T06:42:23;6.00;86.20
78550;DHT22;68091;52.130;5.570;2023-04-06T06:44:50;5.90;86.30
78550;DHT22;68091;52.130;5.570;2023-04-06T06:47:16;6.10;86.30
78550;DHT22;68091;52.130;5.570;2023-04-06T06:49:42;6.20;86.30
78550;DHT22;68091;52.130;5.570;2023-04-06T06:52:08;6.30;85.60
78550;DHT22;68091;52.130;5.570;2023-04-06T06:54:34;6.30;85.90
78550;DHT22;68091;52.130;5.570;2023-04-06T06:57:00;6.40;85.60
78550;DHT22;68091;52.130;5.570;2023-04-06T06:59:26;6.50;85.30
78550;DHT22;68091;52.130;5.570;2023-04-06T07:01:52;6.60;84.90
78550;DHT22;68091;52.130;5.570;2023-04-06T07:04:18;6.70;84.50
78550;DHT22;68091;52.130;5.570;2023-04-06T07:06:43;6.70;83.80
78550;DHT22;68091;52.130;5.570;2023-04-06T07:09:09;6.80;83.60
78550;DHT22;68091;52.130;5.570;2023-04-06T07:11:35;6.90;83.20
78550;DHT22;68091;52.130;5.570;2023-04-06T07:14:01;6.90;83.00
78550;DHT22;68091;52.130;5.570;2023-04-06T07:16:27;7.00;83.50
78550;DHT22;68091;52.130;5.570;2023-04-06T07:18:53;7.10;83.40
78550;DHT22;68091;52.130;5.570;2023-04-06T07:21:19;7.20;83.10
78550;DHT22;68091;52.130;5.570;2023-04-06T07:23:45;7.30;83.90
78550;DHT22;68091;52.130;5.570;2023-04-06T07:26:13;7.10;84.80
78550;DHT22;68091;52.130;5.570;2023-04-06T07:28:39;7.10;83.80
78550;DHT22;68091;52.130;5.570;2023-04-06T07:31:05;7.00;84.60
78550;DHT22;68091;52.130;5.570;2023-04-06T07:33:31;7.00;84.00
78550;DHT22;68091;52.130;5.570;2023-04-06T07:35:57;7.00;85.40
78550;DHT22;68091;52.130;5.570;2023-04-06T07:38:24;6.90;85.10
78550;DHT22;68091;52.130;5.570;2023-04-06T07:40:50;6.80;85.60
78550;DHT22;68091;52.130;5.570;2023-04-06T07:43:16;6.90;85.60
78550;DHT22;68091;52.130;5.570;2023-04-06T07:45:41;6.90;85.00
78550;DHT22;68091;52.130;5.570;2023-04-06T07:48:07;6.90;85.20
78550;DHT22;68091;52.130;5.570;2023-04-06T07:50:33;6.90;85.50
78550;DHT22;68091;52.130;5.570;2023-04-06T07:52:59;6.90;85.20
78550;DHT22;68091;52.130;5.570;2023-04-06T07:55:26;6.90;86.00
78550;DHT22;68091;52.130;5.570;2023-04-06T07:57:51;6.90;85.70
78550;DHT22;68091;52.130;5.570;2023-04-06T08:00:18;6.90;86.70
78550;DHT22;68091;52.130;5.570;2023-04-06T08:02:46;7.00;86.10
78550;DHT22;68091;52.130;5.570;2023-04-06T08:05:12;7.10;86.40
78550;DHT22;68091;52.130;5.570;2023-04-06T08:07:41;7.10;85.90
78550;DHT22;68091;52.130;5.570;2023-04-06T08:10:08;7.20;86.10
78550;DHT22;68091;52.130;5.570;2023-04-06T08:12:34;7.30;85.40
78550;DHT22;68091;52.130;5.570;2023-04-06T08:15:03;7.50;85.40
78550;DHT22;68091;52.130;5.570;2023-04-06T08:17:31;7.60;84.70
78550;DHT22;68091;52.130;5.570;2023-04-06T08:19:59;7.60;84.30
78550;DHT22;68091;52.130;5.570;2023-04-06T08:22:25;7.70;84.40
78550;DHT22;68091;52.130;5.570;2023-04-06T08:24:57;7.90;82.80
78550;DHT22;68091;52.130;5.570;2023-04-06T08:27:22;7.80;82.30
78550;DHT22;68091;52.130;5.570;2023-04-06T08:29:52;7.80;82.60
78550;DHT22;68091;52.130;5.570;2023-04-06T08:32:18;7.90;83.10
78550;DHT22;68091;52.130;5.570;2023-04-06T08:34:44;8.00;82.60
78550;DHT22;68091;52.130;5.570;2023-04-06T08:37:10;8.10;82.80
78550;DHT22;68091;52.130;5.570;2023-04-06T08:39:35;8.20;83.30
78550;DHT22;68091;52.130;5.570;2023-04-06T08:42:15;8.20;82.40
78550;DHT22;68091;52.130;5.570;2023-04-06T08:44:42;8.10;83.10
78550;DHT22;68091;52.130;5.570;2023-04-06T08:47:08;8.10;83.00
78550;DHT22;68091;52.130;5.570;2023-04-06T08:49:35;8.10;83.50
78550;DHT22;68091;52.130;5.570;2023-04-06T08:52:06;8.10;82.80
78550;DHT22;68091;52.130;5.570;2023-04-06T08:54:34;8.10;83.10
78550;DHT22;68091;52.130;5.570;2023-04-06T08:57:03;8.10;83.40
78550;DHT22;68091;52.130;5.570;2023-04-06T08:59:31;8.00;83.60
78550;DHT22;68091;52.130;5.570;2023-04-06T09:01:57;8.10;84.00
78550;DHT22;68091;52.130;5.570;2023-04-06T09:04:23;8.10;84.10
78550;DHT22;68091;52.130;5.570;2023-04-06T09:06:52;8.20;83.80
78550;DHT22;68091;52.130;5.570;2023-04-06T09:09:18;8.30;83.70
78550;DHT22;68091;52.130;5.570;2023-04-06T09:11:48;8.40;84.00
78550;DHT22;68091;52.130;5.570;2023-04-06T09:14:32;8.30;83.50
78550;DHT22;68091;52.130;5.570;2023-04-06T09:16:58;8.40;84.10
78550;DHT22;68091;52.130;5.570;2023-04-06T09:19:24;8.40;84.40
78550;DHT22;68091;52.130;5.570;2023-04-06T09:22:02;8.60;84.50
78550;DHT22;68091;52.130;5.570;2023-04-06T09:24:44;8.60;84.10
78550;DHT22;68091;52.130;5.570;2023-04-06T09:27:11;8.60;83.90
78550;DHT22;68091;52.130;5.570;2023-04-06T09:29:37;8.80;84.20
78550;DHT22;68091;52.130;5.570;2023-04-06T09:32:07;8.80;83.80
78550;DHT22;68091;52.130;5.570;2023-04-06T09:34:39;8.90;84.00
78550;DHT22;68091;52.130;5.570;2023-04-06T09:37:18;9.00;83.60
78550;DHT22;68091;52.130;5.570;2023-04-06T09:39:45;9.10;83.80
78550;DHT22;68091;52.130;5.570;2023-04-06T09:42:24;9.20;83.90
78550;DHT22;68091;52.130;5.570;2023-04-06T09:44:50;9.30;82.70
78550;DHT22;68091;52.130;5.570;2023-04-06T09:47:17;9.30;82.60
78550;DHT22;68091;52.130;5.570;2023-04-06T09:49:44;9.30;82.30
78550;DHT22;68091;52.130;5.570;2023-04-06T09:52:11;9.40;81.90
78550;DHT22;68091;52.130;5.570;2023-04-06T09:54:41;9.30;81.80
78550;DHT22;68091;52.130;5.570;2023-04-06T09:57:18;9.20;82.90
78550;DHT22;68091;52.130;5.570;2023-04-06T10:00:03;9.20;83.70
78550;DHT22;68091;52.130;5.570;2023-04-06T10:02:50;9.30;83.70
78550;DHT22;68091;52.130;5.570;2023-04-06T10:08:21;9.40;83.50
78550;DHT22;68091;52.130;5.570;2023-04-06T10:10:51;9.50;83.80
78550;DHT22;68091;52.130;5.570;2023-04-06T10:13:18;9.70;83.00
78550;DHT22;68091;52.130;5.570;2023-04-06T10:15:44;9.80;82.90
78550;DHT22;68091;52.130;5.570;2023-04-06T10:18:13;10.10;82.70
78550;DHT22;68091;52.130;5.570;2023-04-06T10:23:31;10.40;81.00
78550;DHT22;68091;52.130;5.570;2023-04-06T10:26:00;10.60;81.00
78550;DHT22;68091;52.130;5.570;2023-04-06T10:28:31;10.60;81.00
78550;DHT22;68091;52.130;5.570;2023-04-06T10:30:59;10.50;80.80
78550;DHT22;68091;52.130;5.570;2023-04-06T10:33:26;10.40;80.80
78550;DHT22;68091;52.130;5.570;2023-04-06T10:35:52;10.60;82.30
78550;DHT22;68091;52.130;5.570;2023-04-06T10:38:19;10.60;81.30
78550;DHT22;68091;52.130;5.570;2023-04-06T10:40:49;10.50;82.70
78550;DHT22;68091;52.130;5.570;2023-04-06T10:43:20;10.50;83.60
78550;DHT22;68091;52.130;5.570;2023-04-06T10:45:57;10.50;84.10
78550;DHT22;68091;52.130;5.570;2023-04-06T10:48:25;10.50;85.00
78550;DHT22;68091;52.130;5.570;2023-04-06T10:51:01;10.60;85.70
78550;DHT22;68091;52.130;5.570;2023-04-06T10:53:33;10.40;86.80
78550;DHT22;68091;52.130;5.570;2023-04-06T10:55:59;10.50;87.00
78550;DHT22;68091;52.130;5.570;2023-04-06T10:58:27;10.40;87.80
78550;DHT22;68091;52.130;5.570;2023-04-06T11:00:54;10.30;89.60
78550;DHT22;68091;52.130;5.570;2023-04-06T11:03:20;10.30;90.50
78550;DHT22;68091;52.130;5.570;2023-04-06T11:05:55;10.10;91.80
78550;DHT22;68091;52.130;5.570;2023-04-06T11:08:32;10.00;92.90
78550;DHT22;68091;52.130;5.570;2023-04-06T11:11:16;10.10;93.60
78550;DHT22;68091;52.130;5.570;2023-04-06T11:13:57;9.90;94.10
78550;DHT22;68091;52.130;5.570;2023-04-06T11:16:29;9.70;95.20
78550;DHT22;68091;52.130;5.570;2023-04-06T11:18:57;9.70;95.70
78550;DHT22;68091;52.130;5.570;2023-04-06T11:24:12;9.50;95.90
78550;DHT22;68091;52.130;5.570;2023-04-06T11:26:46;9.40;96.40
78550;DHT22;68091;52.130;5.570;2023-04-06T11:29:16;9.30;96.70
78550;DHT22;68091;52.130;5.570;2023-04-06T11:31:52;9.30;97.00
78550;DHT22;68091;52.130;5.570;2023-04-06T11:34:23;9.30;97.50
78550;DHT22;68091;52.130;5.570;2023-04-06T11:36:55;9.30;96.80
78550;DHT22;68091;52.130;5.570;2023-04-06T11:39:27;9.20;96.90
78550;DHT22;68091;52.130;5.570;2023-04-06T11:42:01;9.00;96.50
78550;DHT22;68091;52.130;5.570;2023-04-06T11:47:09;9.10;97.60
78550;DHT22;68091;52.130;5.570;2023-04-06T11:49:39;9.20;96.90
78550;DHT22;68091;52.130;5.570;2023-04-06T11:52:23;9.10;97.00
78550;DHT22;68091;52.130;5.570;2023-04-06T11:54:50;9.00;97.40
78550;DHT22;68091;52.130;5.570;2023-04-06T11:57:17;9.10;97.50
78550;DHT22;68091;52.130;5.570;2023-04-06T11:59:43;9.20;97.70
78550;DHT22;68091;52.130;5.570;2023-04-06T12:02:10;9.10;97.60
78550;DHT22;68091;52.130;5.570;2023-04-06T12:04:37;9.10;98.00
78550;DHT22;68091;52.130;5.570;2023-04-06T12:07:03;9.00;97.40
78550;DHT22;68091;52.130;5.570;2023-04-06T12:09:29;9.00;98.60
78550;DHT22;68091;52.130;5.570;2023-04-06T12:11:56;9.00;97.40
78550;DHT22;68091;52.130;5.570;2023-04-06T12:14:24;8.90;97.70
78550;DHT22;68091;52.130;5.570;2023-04-06T12:16:50;9.00;97.60
78550;DHT22;68091;52.130;5.570;2023-04-06T12:19:17;9.00;97.30
78550;DHT22;68091;52.130;5.570;2023-04-06T12:21:43;8.90;97.00
78550;DHT22;68091;52.130;5.570;2023-04-06T12:24:08;8.80;97.00
78550;DHT22;68091;52.130;5.570;2023-04-06T12:26:34;8.90;97.70
78550;DHT22;68091;52.130;5.570;2023-04-06T12:29:01;8.80;97.20
78550;DHT22;68091;52.130;5.570;2023-04-06T12:31:34;8.80;98.00
78550;DHT22;68091;52.130;5.570;2023-04-06T12:34:00;8.90;97.80
78550;DHT22;68091;52.130;5.570;2023-04-06T12:36:28;8.90;98.10
78550;DHT22;68091;52.130;5.570;2023-04-06T12:38:57;8.90;98.00
78550;DHT22;68091;52.130;5.570;2023-04-06T12:41:22;9.00;97.90
78550;DHT22;68091;52.130;5.570;2023-04-06T12:43:49;8.90;98.00
78550;DHT22;68091;52.130;5.570;2023-04-06T12:46:18;8.80;98.10
78550;DHT22;68091;52.130;5.570;2023-04-06T12:48:45;8.80;98.40
78550;DHT22;68091;52.130;5.570;2023-04-06T12:51:11;8.80;98.60
78550;DHT22;68091;52.130;5.570;2023-04-06T12:53:38;8.80;99.40
78550;DHT22;68091;52.130;5.570;2023-04-06T12:56:14;8.80;99.20
78550;DHT22;68091;52.130;5.570;2023-04-06T12:58:43;8.80;99.40
78550;DHT22;68091;52.130;5.570;2023-04-06T13:01:09;8.90;99.70
78550;DHT22;68091;52.130;5.570;2023-04-06T13:03:39;8.80;99.60
78550;DHT22;68091;52.130;5.570;2023-04-06T13:06:05;8.70;99.50
78550;DHT22;68091;52.130;5.570;2023-04-06T13:08:31;8.60;99.70
78550;DHT22;68091;52.130;5.570;2023-04-06T13:10:57;8.50;99.90
78550;DHT22;68091;52.130;5.570;2023-04-06T13:13:27;8.50;99.90
78550;DHT22;68091;52.130;5.570;2023-04-06T13:15:55;8.50;99.90
78550;DHT22;68091;52.130;5.570;2023-04-06T13:18:21;8.50;99.90
78550;DHT22;68091;52.130;5.570;2023-04-06T13:20:48;8.40;99.90
78550;DHT22;68091;52.130;5.570;2023-04-06T13:23:14;8.40;99.90
78550;DHT22;68091;52.130;5.570;2023-04-06T13:25:40;8.40;99.90
78550;DHT22;68091;52.130;5.570;2023-04-06T13:28:06;8.50;99.90
78550;DHT22;68091;52.130;5.570;2023-04-06T13:30:32;8.50;99.90
78550;DHT22;68091;52.130;5.570;2023-04-06T13:33:07;8.50;99.90
78550;DHT22;68091;52.130;5.570;2023-04-06T13:35:33;8.50;99.90
78550;DHT22;68091;52.130;5.570;2023-04-06T13:38:01;8.50;99.90
78550;DHT22;68091;52.130;5.570;2023-04-06T13:40:26;8.60;99.90
78550;DHT22;68091;52.130;5.570;2023-04-06T13:42:52;8.60;99.90
78550;DHT22;68091;52.130;5.570;2023-04-06T13:45:21;8.60;99.90
78550;DHT22;68091;52.130;5.570;2023-04-06T13:47:49;8.50;99.90
78550;DHT22;68091;52.130;5.570;2023-04-06T13:50:16;8.50;99.90
78550;DHT22;68091;52.130;5.570;2023-04-06T13:52:42;8.40;99.90
78550;DHT22;68091;52.130;5.570;2023-04-06T13:55:10;8.50;99.90
78550;DHT22;68091;52.130;5.570;2023-04-06T13:57:36;8.50;99.90
78550;DHT22;68091;52.130;5.570;2023-04-06T14:00:03;8.40;99.90
78550;DHT22;68091;52.130;5.570;2023-04-06T14:02:32;8.40;99.90
78550;DHT22;68091;52.130;5.570;2023-04-06T14:04:58;8.30;99.90
78550;DHT22;68091;52.130;5.570;2023-04-06T14:07:23;8.30;99.90
78550;DHT22;68091;52.130;5.570;2023-04-06T14:09:50;8.30;99.90
78550;DHT22;68091;52.130;5.570;2023-04-06T14:12:16;8.30;99.90
78550;DHT22;68091;52.130;5.570;2023-04-06T14:14:47;8.20;99.90
78550;DHT22;68091;52.130;5.570;2023-04-06T14:17:13;8.20;99.90
78550;DHT22;68091;52.130;5.570;2023-04-06T14:19:39;8.20;99.90
78550;DHT22;68091;52.130;5.570;2023-04-06T14:22:05;8.20;99.90
78550;DHT22;68091;52.130;5.570;2023-04-06T14:24:31;8.20;99.90
78550;DHT22;68091;52.130;5.570;2023-04-06T14:26:57;8.20;99.90
78550;DHT22;68091;52.130;5.570;2023-04-06T14:29:23;8.20;99.90
78550;DHT22;68091;52.130;5.570;2023-04-06T14:31:49;8.10;99.90
78550;DHT22;68091;52.130;5.570;2023-04-06T14:34:18;8.10;99.90
78550;DHT22;68091;52.130;5.570;2023-04-06T14:36:44;8.10;99.90
78550;DHT22;68091;52.130;5.570;2023-04-06T14:39:15;8.10;99.90
78550;DHT22;68091;52.130;5.570;2023-04-06T14:41:41;8.10;99.90
78550;DHT22;68091;52.130;5.570;2023-04-06T14:44:07;8.10;99.90
78550;DHT22;68091;52.130;5.570;2023-04-06T14:46:35;8.00;99.90
78550;DHT22;68091;52.130;5.570;2023-04-06T14:49:04;7.90;99.90
78550;DHT22;68091;52.130;5.570;2023-04-06T14:51:30;8.00;99.90
78550;DHT22;68091;52.130;5.570;2023-04-06T14:53:56;8.00;99.90
78550;DHT22;68091;52.130;5.570;2023-04-06T14:56:23;8.10;99.90
78550;DHT22;68091;52.130;5.570;2023-04-06T14:58:50;8.00;99.90
78550;DHT22;68091;52.130;5.570;2023-04-06T15:01:19;8.10;99.90
78550;DHT22;68091;52.130;5.570;2023-04-06T15:03:46;8.00;99.90
78550;DHT22;68091;52.130;5.570;2023-04-06T15:06:13;8.10;99.90
78550;DHT22;68091;52.130;5.570;2023-04-06T15:08:43;8.00;99.90
78550;DHT22;68091;52.130;5.570;2023-04-06T15:11:09;8.00;99.90
78550;DHT22;68091;52.130;5.570;2023-04-06T15:13:35;7.90;99.90
78550;DHT22;68091;52.130;5.570;2023-04-06T15:16:01;8.00;99.90
78550;DHT22;68091;52.130;5.570;2023-04-06T15:18:27;8.00;99.90
78550;DHT22;68091;52.130;5.570;2023-04-06T15:20:54;8.00;99.90
78550;DHT22;68091;52.130;5.570;2023-04-06T15:23:20;8.00;99.90
78550;DHT22;68091;52.130;5.570;2023-04-06T15:25:46;8.00;99.90
78550;DHT22;68091;52.130;5.570;2023-04-06T15:28:12;8.00;99.90
78550;DHT22;68091;52.130;5.570;2023-04-06T15:30:41;8.00;99.90
78550;DHT22;68091;52.130;5.570;2023-04-06T15:33:08;7.90;99.90
78550;DHT22;68091;52.130;5.570;2023-04-06T15:35:34;7.90;99.90
78550;DHT22;68091;52.130;5.570;2023-04-06T15:38:08;8.00;99.90
78550;DHT22;68091;52.130;5.570;2023-04-06T15:40:34;7.90;99.90
78550;DHT22;68091;52.130;5.570;2023-04-06T15:43:08;7.90;99.90
78550;DHT22;68091;52.130;5.570;2023-04-06T15:45:33;8.00;99.90
78550;DHT22;68091;52.130;5.570;2023-04-06T15:47:59;7.90;99.90
78550;DHT22;68091;52.130;5.570;2023-04-06T15:50:26;7.90;99.90
78550;DHT22;68091;52.130;5.570;2023-04-06T15:52:55;8.00;99.90
78550;DHT22;68091;52.130;5.570;2023-04-06T15:55:28;7.90;99.90
78550;DHT22;68091;52.130;5.570;2023-04-06T15:58:14;7.90;99.90